sensor_id;sensor_type;location;lat;lon;timestamp;P1;durP1;ratioP1;P2;durP2;ratioP2
56083;SDS011;41958;52.416;13.428;2022-08-19T00:00:38;20.98;;;17.35;;
56083;SDS011;41958;52.416;13.428;2022-08-19T00:03:04;19.70;;;16.90;;
56083;SDS011;41958;52.416;13.428;2022-08-19T00:05:30;19.77;;;16.00;;
56083;SDS011;41958;52.416;13.428;2022-08-19T00:07:56;19.98;;;16.70;;
56083;SDS011;41958;52.416;13.428;2022-08-19T00:10:21;17.80;;;15.60;;
56083;SDS011;41958;52.416;13.428;2022-08-19T00:12:47;16.73;;;14.93;;
56083;SDS011;41958;52.416;13.428;2022-08-19T00:15:14;17.65;;;15.40;;
56083;SDS011;41958;52.416;13.428;2022-08-19T00:17:42;17.73;;;15.32;;
56083;SDS011;41958;52.416;13.428;2022-08-19T00:20:08;21.10;;;16.50;;
56083;SDS011;41958;52.416;13.428;2022-08-19T00:22:43;19.77;;;16.02;;
56083;SDS011;41958;52.416;13.428;2022-08-19T00:25:09;18.10;;;15.95;;
56083;SDS011;41958;52.416;13.428;2022-08-19T00:27:34;18.08;;;15.40;;
56083;SDS011;41958;52.416;13.428;2022-08-19T00:29:59;23.48;;;16.23;;
56083;SDS011;41958;52.416;13.428;2022-08-19T00:32:26;17.75;;;15.63;;
56083;SDS011;41958;52.416;13.428;2022-08-19T00:34:52;19.17;;;15.10;;
56083;SDS011;41958;52.416;13.428;2022-08-19T00:37:17;17.77;;;15.82;;
56083;SDS011;41958;52.416;13.428;2022-08-19T00:39:44;16.58;;;14.32;;
56083;SDS011;41958;52.416;13.428;2022-08-19T00:42:09;16.00;;;14.18;;
56083;SDS011;41958;52.416;13.428;2022-08-19T00:44:34;19.88;;;15.40;;
56083;SDS011;41958;52.416;13.428;2022-08-19T00:47:00;17.10;;;14.25;;
56083;SDS011;41958;52.416;13.428;2022-08-19T00:49:27;17.65;;;15.40;;
56083;SDS011;41958;52.416;13.428;2022-08-19T00:52:00;17.65;;;15.80;;
56083;SDS011;41958;52.416;13.428;2022-08-19T00:54:29;18.45;;;15.27;;
56083;SDS011;41958;52.416;13.428;2022-08-19T00:56:56;20.00;;;16.67;;
56083;SDS011;41958;52.416;13.428;2022-08-19T00:59:22;21.10;;;16.65;;
56083;SDS011;41958;52.416;13.428;2022-08-19T01:01:48;24.35;;;17.85;;
56083;SDS011;41958;52.416;13.428;2022-08-19T01:04:13;22.05;;;17.67;;
56083;SDS011;41958;52.416;13.428;2022-08-19T01:06:39;23.42;;;18.23;;
56083;SDS011;41958;52.416;13.428;2022-08-19T01:09:06;24.33;;;18.35;;
56083;SDS011;41958;52.416;13.428;2022-08-19T01:11:33;23.73;;;18.13;;
56083;SDS011;41958;52.416;13.428;2022-08-19T01:14:01;21.83;;;18.40;;
56083;SDS011;41958;52.416;13.428;2022-08-19T01:16:27;22.08;;;17.52;;
56083;SDS011;41958;52.416;13.428;2022-08-19T01:18:54;20.65;;;17.05;;
56083;SDS011;41958;52.416;13.428;2022-08-19T01:21:22;22.77;;;17.73;;
56083;SDS011;41958;52.416;13.428;2022-08-19T01:23:54;23.52;;;17.88;;
56083;SDS011;41958;52.416;13.428;2022-08-19T01:26:20;24.02;;;18.60;;
56083;SDS011;41958;52.416;13.428;2022-08-19T01:28:49;24.85;;;19.20;;
56083;SDS011;41958;52.416;13.428;2022-08-19T01:31:19;26.58;;;18.85;;
56083;SDS011;41958;52.416;13.428;2022-08-19T01:33:47;27.08;;;20.75;;
56083;SDS011;41958;52.416;13.428;2022-08-19T01:36:15;28.15;;;21.08;;
56083;SDS011;41958;52.416;13.428;2022-08-19T01:38:47;31.70;;;20.85;;
56083;SDS011;41958;52.416;13.428;2022-08-19T01:41:14;29.55;;;21.85;;
56083;SDS011;41958;52.416;13.428;2022-08-19T01:43:39;28.98;;;21.13;;
56083;SDS011;41958;52.416;13.428;2022-08-19T01:46:05;28.58;;;21.13;;
56083;SDS011;41958;52.416;13.428;2022-08-19T01:48:36;24.20;;;20.02;;
56083;SDS011;41958;52.416;13.428;2022-08-19T01:51:03;23.35;;;19.23;;
56083;SDS011;41958;52.416;13.428;2022-08-19T01:53:29;26.10;;;20.65;;
56083;SDS011;41958;52.416;13.428;2022-08-19T01:55:55;35.25;;;21.67;;
56083;SDS011;41958;52.416;13.428;2022-08-19T01:58:21;32.60;;;22.55;;
56083;SDS011;41958;52.416;13.428;2022-08-19T02:00:49;35.55;;;22.52;;
56083;SDS011;41958;52.416;13.428;2022-08-19T02:03:14;32.80;;;22.77;;
56083;SDS011;41958;52.416;13.428;2022-08-19T02:05:41;32.58;;;23.52;;
56083;SDS011;41958;52.416;13.428;2022-08-19T02:08:07;28.63;;;22.48;;
56083;SDS011;41958;52.416;13.428;2022-08-19T02:10:32;27.05;;;21.05;;
56083;SDS011;41958;52.416;13.428;2022-08-19T02:12:58;28.85;;;21.30;;
56083;SDS011;41958;52.416;13.428;2022-08-19T02:15:23;32.00;;;22.98;;
56083;SDS011;41958;52.416;13.428;2022-08-19T02:17:50;28.65;;;22.33;;
56083;SDS011;41958;52.416;13.428;2022-08-19T02:20:16;29.80;;;21.95;;
56083;SDS011;41958;52.416;13.428;2022-08-19T02:22:41;25.75;;;20.50;;
56083;SDS011;41958;52.416;13.428;2022-08-19T02:25:08;25.75;;;21.65;;
56083;SDS011;41958;52.416;13.428;2022-08-19T02:27:34;25.83;;;20.88;;
56083;SDS011;41958;52.416;13.428;2022-08-19T02:30:00;28.42;;;20.42;;
56083;SDS011;41958;52.416;13.428;2022-08-19T02:32:26;28.98;;;21.80;;
56083;SDS011;41958;52.416;13.428;2022-08-19T02:34:52;27.25;;;21.38;;
56083;SDS011;41958;52.416;13.428;2022-08-19T02:37:17;24.48;;;20.48;;
56083;SDS011;41958;52.416;13.428;2022-08-19T02:40:02;26.98;;;20.55;;
56083;SDS011;41958;52.416;13.428;2022-08-19T02:42:28;26.27;;;20.60;;
56083;SDS011;41958;52.416;13.428;2022-08-19T02:44:55;28.33;;;20.63;;
56083;SDS011;41958;52.416;13.428;2022-08-19T02:47:20;25.17;;;19.48;;
56083;SDS011;41958;52.416;13.428;2022-08-19T02:49:45;24.70;;;20.25;;
56083;SDS011;41958;52.416;13.428;2022-08-19T02:52:11;26.60;;;20.38;;
56083;SDS011;41958;52.416;13.428;2022-08-19T02:54:37;27.88;;;20.48;;
56083;SDS011;41958;52.416;13.428;2022-08-19T02:57:03;28.67;;;20.40;;
56083;SDS011;41958;52.416;13.428;2022-08-19T02:59:29;27.40;;;20.75;;
56083;SDS011;41958;52.416;13.428;2022-08-19T03:01:56;26.40;;;20.52;;
56083;SDS011;41958;52.416;13.428;2022-08-19T03:04:21;24.42;;;19.92;;
56083;SDS011;41958;52.416;13.428;2022-08-19T03:06:47;24.42;;;19.50;;
56083;SDS011;41958;52.416;13.428;2022-08-19T03:09:13;25.55;;;19.02;;
56083;SDS011;41958;52.416;13.428;2022-08-19T03:11:39;24.20;;;18.77;;
56083;SDS011;41958;52.416;13.428;2022-08-19T03:14:06;25.58;;;19.52;;
56083;SDS011;41958;52.416;13.428;2022-08-19T03:16:34;22.23;;;18.17;;
56083;SDS011;41958;52.416;13.428;2022-08-19T03:19:05;23.83;;;18.33;;
56083;SDS011;41958;52.416;13.428;2022-08-19T03:21:31;28.50;;;19.67;;
56083;SDS011;41958;52.416;13.428;2022-08-19T03:23:58;32.53;;;21.95;;
56083;SDS011;41958;52.416;13.428;2022-08-19T03:26:28;31.52;;;22.67;;
56083;SDS011;41958;52.416;13.428;2022-08-19T03:28:54;31.65;;;23.55;;
56083;SDS011;41958;52.416;13.428;2022-08-19T03:31:21;27.02;;;22.77;;
56083;SDS011;41958;52.416;13.428;2022-08-19T03:33:47;31.27;;;23.80;;
56083;SDS011;41958;52.416;13.428;2022-08-19T03:36:15;30.48;;;22.23;;
56083;SDS011;41958;52.416;13.428;2022-08-19T03:38:45;29.55;;;21.70;;
56083;SDS011;41958;52.416;13.428;2022-08-19T03:41:14;30.23;;;20.77;;
56083;SDS011;41958;52.416;13.428;2022-08-19T03:43:41;24.50;;;19.45;;
56083;SDS011;41958;52.416;13.428;2022-08-19T03:46:09;25.75;;;19.13;;
56083;SDS011;41958;52.416;13.428;2022-08-19T03:48:36;25.05;;;19.38;;
56083;SDS011;41958;52.416;13.428;2022-08-19T03:51:04;25.25;;;19.33;;
56083;SDS011;41958;52.416;13.428;2022-08-19T03:53:30;27.40;;;19.25;;
56083;SDS011;41958;52.416;13.428;2022-08-19T03:55:56;23.80;;;20.08;;
56083;SDS011;41958;52.416;13.428;2022-08-19T03:58:24;26.73;;;20.58;;
56083;SDS011;41958;52.416;13.428;2022-08-19T04:00:50;27.02;;;20.20;;
56083;SDS011;41958;52.416;13.428;2022-08-19T04:03:15;28.98;;;21.08;;
56083;SDS011;41958;52.416;13.428;2022-08-19T04:05:40;30.52;;;20.67;;
56083;SDS011;41958;52.416;13.428;2022-08-19T04:08:05;25.42;;;20.42;;
56083;SDS011;41958;52.416;13.428;2022-08-19T04:10:35;24.55;;;20.13;;
56083;SDS011;41958;52.416;13.428;2022-08-19T04:13:01;24.13;;;19.58;;
56083;SDS011;41958;52.416;13.428;2022-08-19T04:15:29;25.80;;;19.80;;
56083;SDS011;41958;52.416;13.428;2022-08-19T04:17:56;24.50;;;19.02;;
56083;SDS011;41958;52.416;13.428;2022-08-19T04:20:21;23.77;;;18.60;;
56083;SDS011;41958;52.416;13.428;2022-08-19T04:22:46;21.40;;;18.83;;
56083;SDS011;41958;52.416;13.428;2022-08-19T04:25:11;24.20;;;19.23;;
56083;SDS011;41958;52.416;13.428;2022-08-19T04:27:37;25.05;;;19.95;;
56083;SDS011;41958;52.416;13.428;2022-08-19T04:30:03;21.98;;;18.92;;
56083;SDS011;41958;52.416;13.428;2022-08-19T04:32:28;23.67;;;19.13;;
56083;SDS011;41958;52.416;13.428;2022-08-19T04:34:56;27.40;;;20.40;;
56083;SDS011;41958;52.416;13.428;2022-08-19T04:37:24;27.38;;;21.27;;
56083;SDS011;41958;52.416;13.428;2022-08-19T04:39:51;23.20;;;20.33;;
56083;SDS011;41958;52.416;13.428;2022-08-19T04:42:35;23.17;;;20.20;;
56083;SDS011;41958;52.416;13.428;2022-08-19T04:45:07;23.88;;;20.20;;
56083;SDS011;41958;52.416;13.428;2022-08-19T04:47:36;23.48;;;20.33;;
56083;SDS011;41958;52.416;13.428;2022-08-19T04:50:02;26.95;;;20.45;;
56083;SDS011;41958;52.416;13.428;2022-08-19T04:52:28;25.38;;;20.88;;
56083;SDS011;41958;52.416;13.428;2022-08-19T04:54:56;26.10;;;21.02;;
56083;SDS011;41958;52.416;13.428;2022-08-19T04:57:21;26.10;;;20.73;;
56083;SDS011;41958;52.416;13.428;2022-08-19T04:59:46;21.00;;;18.67;;
56083;SDS011;41958;52.416;13.428;2022-08-19T05:02:11;23.08;;;18.42;;
56083;SDS011;41958;52.416;13.428;2022-08-19T05:04:37;20.25;;;18.15;;
56083;SDS011;41958;52.416;13.428;2022-08-19T05:07:04;24.00;;;19.67;;
56083;SDS011;41958;52.416;13.428;2022-08-19T05:09:29;21.60;;;17.85;;
56083;SDS011;41958;52.416;13.428;2022-08-19T05:11:55;19.63;;;16.88;;
56083;SDS011;41958;52.416;13.428;2022-08-19T05:14:20;21.10;;;17.77;;
56083;SDS011;41958;52.416;13.428;2022-08-19T05:16:46;20.65;;;17.33;;
56083;SDS011;41958;52.416;13.428;2022-08-19T05:19:12;19.90;;;16.77;;
56083;SDS011;41958;52.416;13.428;2022-08-19T05:21:56;19.02;;;16.85;;
56083;SDS011;41958;52.416;13.428;2022-08-19T05:27:05;19.20;;;16.50;;
56083;SDS011;41958;52.416;13.428;2022-08-19T05:29:31;19.08;;;15.90;;
56083;SDS011;41958;52.416;13.428;2022-08-19T05:31:59;18.73;;;16.42;;
56083;SDS011;41958;52.416;13.428;2022-08-19T05:34:25;19.35;;;16.17;;
56083;SDS011;41958;52.416;13.428;2022-08-19T05:36:51;18.45;;;15.95;;
56083;SDS011;41958;52.416;13.428;2022-08-19T05:39:21;17.02;;;15.23;;
56083;SDS011;41958;52.416;13.428;2022-08-19T05:41:47;21.73;;;15.07;;
56083;SDS011;41958;52.416;13.428;2022-08-19T05:44:14;19.20;;;16.35;;
56083;SDS011;41958;52.416;13.428;2022-08-19T05:46:42;16.25;;;14.55;;
56083;SDS011;41958;52.416;13.428;2022-08-19T05:49:11;15.80;;;14.10;;
56083;SDS011;41958;52.416;13.428;2022-08-19T05:51:37;17.90;;;16.00;;
56083;SDS011;41958;52.416;13.428;2022-08-19T05:54:03;19.55;;;15.60;;
56083;SDS011;41958;52.416;13.428;2022-08-19T05:56:30;17.35;;;15.57;;
56083;SDS011;41958;52.416;13.428;2022-08-19T05:58:56;16.80;;;14.90;;
56083;SDS011;41958;52.416;13.428;2022-08-19T06:01:23;18.23;;;16.30;;
56083;SDS011;41958;52.416;13.428;2022-08-19T06:03:50;18.98;;;16.80;;
56083;SDS011;41958;52.416;13.428;2022-08-19T06:06:16;17.90;;;15.15;;
56083;SDS011;41958;52.416;13.428;2022-08-19T06:08:42;19.35;;;16.85;;
56083;SDS011;41958;52.416;13.428;2022-08-19T06:13:44;18.00;;;15.65;;
56083;SDS011;41958;52.416;13.428;2022-08-19T06:16:12;18.83;;;15.70;;
56083;SDS011;41958;52.416;13.428;2022-08-19T06:18:38;18.35;;;16.30;;
56083;SDS011;41958;52.416;13.428;2022-08-19T06:21:03;18.98;;;16.30;;
56083;SDS011;41958;52.416;13.428;2022-08-19T06:23:29;17.45;;;15.68;;
56083;SDS011;41958;52.416;13.428;2022-08-19T06:25:55;17.70;;;15.90;;
56083;SDS011;41958;52.416;13.428;2022-08-19T06:28:20;19.17;;;16.75;;
56083;SDS011;41958;52.416;13.428;2022-08-19T06:30:47;17.70;;;15.73;;
56083;SDS011;41958;52.416;13.428;2022-08-19T06:33:13;18.23;;;16.33;;
56083;SDS011;41958;52.416;13.428;2022-08-19T06:35:39;18.70;;;15.30;;
56083;SDS011;41958;52.416;13.428;2022-08-19T06:38:05;17.88;;;15.98;;
56083;SDS011;41958;52.416;13.428;2022-08-19T06:40:30;18.27;;;15.80;;
56083;SDS011;41958;52.416;13.428;2022-08-19T06:42:55;19.73;;;15.95;;
56083;SDS011;41958;52.416;13.428;2022-08-19T06:45:22;18.25;;;15.52;;
56083;SDS011;41958;52.416;13.428;2022-08-19T06:47:48;18.27;;;15.52;;
56083;SDS011;41958;52.416;13.428;2022-08-19T06:50:13;18.08;;;16.25;;
56083;SDS011;41958;52.416;13.428;2022-08-19T06:52:39;17.77;;;15.90;;
56083;SDS011;41958;52.416;13.428;2022-08-19T06:55:04;19.85;;;15.68;;
56083;SDS011;41958;52.416;13.428;2022-08-19T06:57:30;16.42;;;14.52;;
56083;SDS011;41958;52.416;13.428;2022-08-19T06:59:57;21.77;;;15.75;;
56083;SDS011;41958;52.416;13.428;2022-08-19T07:02:24;19.15;;;16.48;;
56083;SDS011;41958;52.416;13.428;2022-08-19T07:04:51;21.60;;;16.40;;
56083;SDS011;41958;52.416;13.428;2022-08-19T07:07:18;17.52;;;15.73;;
56083;SDS011;41958;52.416;13.428;2022-08-19T07:09:45;19.33;;;16.33;;
56083;SDS011;41958;52.416;13.428;2022-08-19T07:12:11;18.95;;;15.90;;
56083;SDS011;41958;52.416;13.428;2022-08-19T07:14:40;19.08;;;15.85;;
56083;SDS011;41958;52.416;13.428;2022-08-19T07:17:08;20.90;;;16.00;;
56083;SDS011;41958;52.416;13.428;2022-08-19T07:19:36;21.17;;;15.95;;
56083;SDS011;41958;52.416;13.428;2022-08-19T07:22:03;18.20;;;15.45;;
56083;SDS011;41958;52.416;13.428;2022-08-19T07:24:31;17.52;;;15.23;;
56083;SDS011;41958;52.416;13.428;2022-08-19T07:26:58;18.60;;;15.48;;
56083;SDS011;41958;52.416;13.428;2022-08-19T07:29:27;18.95;;;16.05;;
56083;SDS011;41958;52.416;13.428;2022-08-19T07:31:58;18.00;;;15.00;;
56083;SDS011;41958;52.416;13.428;2022-08-19T07:34:24;17.30;;;14.82;;
56083;SDS011;41958;52.416;13.428;2022-08-19T07:36:50;17.15;;;15.32;;
56083;SDS011;41958;52.416;13.428;2022-08-19T07:39:20;16.67;;;14.95;;
56083;SDS011;41958;52.416;13.428;2022-08-19T07:41:54;17.55;;;15.48;;
56083;SDS011;41958;52.416;13.428;2022-08-19T07:44:20;16.80;;;15.07;;
56083;SDS011;41958;52.416;13.428;2022-08-19T07:46:47;18.30;;;16.25;;
56083;SDS011;41958;52.416;13.428;2022-08-19T07:49:14;17.58;;;15.48;;
56083;SDS011;41958;52.416;13.428;2022-08-19T07:51:44;16.77;;;15.15;;
56083;SDS011;41958;52.416;13.428;2022-08-19T07:54:15;16.80;;;15.15;;
56083;SDS011;41958;52.416;13.428;2022-08-19T07:56:40;18.15;;;16.13;;
56083;SDS011;41958;52.416;13.428;2022-08-19T07:59:06;17.38;;;14.98;;
56083;SDS011;41958;52.416;13.428;2022-08-19T08:01:33;18.98;;;15.77;;
56083;SDS011;41958;52.416;13.428;2022-08-19T08:03:58;16.73;;;14.30;;
56083;SDS011;41958;52.416;13.428;2022-08-19T08:06:42;17.23;;;15.25;;
56083;SDS011;41958;52.416;13.428;2022-08-19T08:09:31;19.38;;;15.80;;
56083;SDS011;41958;52.416;13.428;2022-08-19T08:12:00;20.05;;;16.73;;
56083;SDS011;41958;52.416;13.428;2022-08-19T08:14:33;18.38;;;16.40;;
56083;SDS011;41958;52.416;13.428;2022-08-19T08:17:01;17.77;;;15.98;;
56083;SDS011;41958;52.416;13.428;2022-08-19T08:19:28;19.30;;;16.70;;
56083;SDS011;41958;52.416;13.428;2022-08-19T08:21:55;17.02;;;15.23;;
56083;SDS011;41958;52.416;13.428;2022-08-19T08:24:22;18.80;;;16.90;;
56083;SDS011;41958;52.416;13.428;2022-08-19T08:26:48;17.67;;;15.65;;
56083;SDS011;41958;52.416;13.428;2022-08-19T08:29:14;18.60;;;15.90;;
56083;SDS011;41958;52.416;13.428;2022-08-19T08:31:41;19.08;;;15.63;;
56083;SDS011;41958;52.416;13.428;2022-08-19T08:34:08;19.48;;;16.35;;
56083;SDS011;41958;52.416;13.428;2022-08-19T08:36:37;19.67;;;16.15;;
56083;SDS011;41958;52.416;13.428;2022-08-19T08:39:10;17.60;;;15.40;;
56083;SDS011;41958;52.416;13.428;2022-08-19T08:41:43;20.65;;;16.52;;
56083;SDS011;41958;52.416;13.428;2022-08-19T08:44:17;16.67;;;14.98;;
56083;SDS011;41958;52.416;13.428;2022-08-19T08:46:55;20.83;;;17.33;;
56083;SDS011;41958;52.416;13.428;2022-08-19T08:49:32;18.75;;;16.73;;
56083;SDS011;41958;52.416;13.428;2022-08-19T08:52:06;19.83;;;17.88;;
56083;SDS011;41958;52.416;13.428;2022-08-19T08:54:42;17.90;;;16.02;;
56083;SDS011;41958;52.416;13.428;2022-08-19T08:57:17;21.60;;;17.30;;
56083;SDS011;41958;52.416;13.428;2022-08-19T08:59:48;19.52;;;17.52;;
56083;SDS011;41958;52.416;13.428;2022-08-19T09:02:17;19.48;;;17.40;;
56083;SDS011;41958;52.416;13.428;2022-08-19T09:04:43;19.02;;;17.02;;
56083;SDS011;41958;52.416;13.428;2022-08-19T09:07:12;19.77;;;17.73;;
56083;SDS011;41958;52.416;13.428;2022-08-19T09:09:51;21.60;;;18.27;;
56083;SDS011;41958;52.416;13.428;2022-08-19T09:12:24;20.50;;;18.17;;
56083;SDS011;41958;52.416;13.428;2022-08-19T09:15:10;20.90;;;17.42;;
56083;SDS011;41958;52.416;13.428;2022-08-19T09:17:38;24.70;;;17.60;;
56083;SDS011;41958;52.416;13.428;2022-08-19T09:20:06;19.70;;;17.83;;
56083;SDS011;41958;52.416;13.428;2022-08-19T09:22:41;20.17;;;18.02;;
56083;SDS011;41958;52.416;13.428;2022-08-19T09:25:10;20.40;;;18.35;;
56083;SDS011;41958;52.416;13.428;2022-08-19T09:27:39;19.85;;;17.85;;
56083;SDS011;41958;52.416;13.428;2022-08-19T09:30:06;19.42;;;17.20;;
56083;SDS011;41958;52.416;13.428;2022-08-19T09:32:33;19.98;;;17.98;;
56083;SDS011;41958;52.416;13.428;2022-08-19T09:34:59;21.30;;;18.33;;
56083;SDS011;41958;52.416;13.428;2022-08-19T09:37:25;19.85;;;17.67;;
56083;SDS011;41958;52.416;13.428;2022-08-19T09:39:51;22.05;;;17.83;;
56083;SDS011;41958;52.416;13.428;2022-08-19T09:42:17;21.40;;;19.08;;
56083;SDS011;41958;52.416;13.428;2022-08-19T09:44:42;21.17;;;18.35;;
56083;SDS011;41958;52.416;13.428;2022-08-19T09:47:08;20.83;;;18.45;;
56083;SDS011;41958;52.416;13.428;2022-08-19T09:49:35;20.60;;;18.48;;
56083;SDS011;41958;52.416;13.428;2022-08-19T09:52:00;19.30;;;17.38;;
56083;SDS011;41958;52.416;13.428;2022-08-19T09:54:26;20.88;;;18.75;;
56083;SDS011;41958;52.416;13.428;2022-08-19T09:56:52;20.67;;;17.92;;
56083;SDS011;41958;52.416;13.428;2022-08-19T09:59:18;22.45;;;18.13;;
56083;SDS011;41958;52.416;13.428;2022-08-19T10:01:43;19.55;;;17.55;;
56083;SDS011;41958;52.416;13.428;2022-08-19T10:04:09;19.40;;;17.40;;
56083;SDS011;41958;52.416;13.428;2022-08-19T10:06:34;24.40;;;18.38;;
56083;SDS011;41958;52.416;13.428;2022-08-19T10:09:02;20.63;;;17.75;;
56083;SDS011;41958;52.416;13.428;2022-08-19T10:11:32;19.88;;;17.77;;
56083;SDS011;41958;52.416;13.428;2022-08-19T10:14:00;17.58;;;15.77;;
56083;SDS011;41958;52.416;13.428;2022-08-19T10:16:26;20.23;;;17.27;;
56083;SDS011;41958;52.416;13.428;2022-08-19T10:18:51;18.08;;;16.17;;
56083;SDS011;41958;52.416;13.428;2022-08-19T10:21:19;17.88;;;15.95;;
56083;SDS011;41958;52.416;13.428;2022-08-19T10:23:47;18.38;;;15.77;;
56083;SDS011;41958;52.416;13.428;2022-08-19T10:26:14;17.77;;;15.88;;
56083;SDS011;41958;52.416;13.428;2022-08-19T10:28:42;17.00;;;15.32;;
56083;SDS011;41958;52.416;13.428;2022-08-19T10:31:09;17.77;;;15.73;;
56083;SDS011;41958;52.416;13.428;2022-08-19T10:33:37;17.92;;;16.02;;
56083;SDS011;41958;52.416;13.428;2022-08-19T10:36:04;17.27;;;15.57;;
56083;SDS011;41958;52.416;13.428;2022-08-19T10:38:34;17.50;;;15.70;;
56083;SDS011;41958;52.416;13.428;2022-08-19T10:41:06;17.58;;;15.75;;
56083;SDS011;41958;52.416;13.428;2022-08-19T10:43:34;16.98;;;15.07;;
56083;SDS011;41958;52.416;13.428;2022-08-19T10:46:03;17.83;;;15.68;;
56083;SDS011;41958;52.416;13.428;2022-08-19T10:48:30;17.08;;;15.38;;
56083;SDS011;41958;52.416;13.428;2022-08-19T10:50:56;18.40;;;16.50;;
56083;SDS011;41958;52.416;13.428;2022-08-19T10:53:43;17.30;;;15.52;;
56083;SDS011;41958;52.416;13.428;2022-08-19T10:56:08;17.27;;;15.45;;
56083;SDS011;41958;52.416;13.428;2022-08-19T10:58:59;20.50;;;16.38;;
56083;SDS011;41958;52.416;13.428;2022-08-19T11:01:28;17.05;;;15.25;;
56083;SDS011;41958;52.416;13.428;2022-08-19T11:03:55;18.38;;;15.32;;
56083;SDS011;41958;52.416;13.428;2022-08-19T11:06:22;16.52;;;14.75;;
56083;SDS011;41958;52.416;13.428;2022-08-19T11:08:49;17.65;;;15.43;;
56083;SDS011;41958;52.416;13.428;2022-08-19T11:11:15;17.75;;;15.32;;
56083;SDS011;41958;52.416;13.428;2022-08-19T11:13:41;16.38;;;14.77;;
56083;SDS011;41958;52.416;13.428;2022-08-19T11:16:08;15.75;;;14.23;;
56083;SDS011;41958;52.416;13.428;2022-08-19T11:18:39;17.15;;;14.73;;
56083;SDS011;41958;52.416;13.428;2022-08-19T11:21:07;16.75;;;14.80;;
56083;SDS011;41958;52.416;13.428;2022-08-19T11:23:33;17.38;;;14.63;;
56083;SDS011;41958;52.416;13.428;2022-08-19T11:25:59;16.50;;;14.45;;
56083;SDS011;41958;52.416;13.428;2022-08-19T11:28:26;16.48;;;13.70;;
56083;SDS011;41958;52.416;13.428;2022-08-19T11:30:51;15.98;;;14.38;;
56083;SDS011;41958;52.416;13.428;2022-08-19T11:33:16;16.77;;;15.02;;
56083;SDS011;41958;52.416;13.428;2022-08-19T11:35:42;16.83;;;14.25;;
56083;SDS011;41958;52.416;13.428;2022-08-19T11:38:07;16.27;;;14.63;;
56083;SDS011;41958;52.416;13.428;2022-08-19T11:40:32;16.20;;;14.50;;
56083;SDS011;41958;52.416;13.428;2022-08-19T11:42:58;15.30;;;13.77;;
56083;SDS011;41958;52.416;13.428;2022-08-19T11:45:24;15.48;;;13.88;;
56083;SDS011;41958;52.416;13.428;2022-08-19T11:47:50;15.88;;;14.25;;
56083;SDS011;41958;52.416;13.428;2022-08-19T11:50:15;17.73;;;13.55;;
56083;SDS011;41958;52.416;13.428;2022-08-19T11:52:41;15.18;;;13.57;;
56083;SDS011;41958;52.416;13.428;2022-08-19T11:55:07;15.27;;;13.45;;
56083;SDS011;41958;52.416;13.428;2022-08-19T11:57:33;14.77;;;13.18;;
56083;SDS011;41958;52.416;13.428;2022-08-19T11:59:58;14.55;;;12.80;;
56083;SDS011;41958;52.416;13.428;2022-08-19T12:02:23;14.70;;;13.25;;
56083;SDS011;41958;52.416;13.428;2022-08-19T12:04:49;16.17;;;13.45;;
56083;SDS011;41958;52.416;13.428;2022-08-19T12:07:14;14.90;;;12.70;;
56083;SDS011;41958;52.416;13.428;2022-08-19T12:09:40;15.20;;;12.55;;
56083;SDS011;41958;52.416;13.428;2022-08-19T12:12:05;14.55;;;12.50;;
56083;SDS011;41958;52.416;13.428;2022-08-19T12:14:31;13.20;;;11.90;;
56083;SDS011;41958;52.416;13.428;2022-08-19T12:16:57;12.20;;;11.07;;
56083;SDS011;41958;52.416;13.428;2022-08-19T12:19:22;14.77;;;11.27;;
56083;SDS011;41958;52.416;13.428;2022-08-19T12:21:49;13.52;;;12.13;;
56083;SDS011;41958;52.416;13.428;2022-08-19T12:24:15;12.82;;;11.60;;
56083;SDS011;41958;52.416;13.428;2022-08-19T12:26:40;12.00;;;10.80;;
56083;SDS011;41958;52.416;13.428;2022-08-19T12:29:06;11.93;;;10.73;;
56083;SDS011;41958;52.416;13.428;2022-08-19T12:31:33;11.50;;;10.43;;
56083;SDS011;41958;52.416;13.428;2022-08-19T12:33:58;12.05;;;10.38;;
56083;SDS011;41958;52.416;13.428;2022-08-19T12:36:25;11.50;;;10.27;;
56083;SDS011;41958;52.416;13.428;2022-08-19T12:38:51;10.35;;;9.40;;
56083;SDS011;41958;52.416;13.428;2022-08-19T12:41:17;11.02;;;10.00;;
56083;SDS011;41958;52.416;13.428;2022-08-19T12:43:43;10.45;;;9.48;;
56083;SDS011;41958;52.416;13.428;2022-08-19T12:46:09;10.20;;;9.20;;
56083;SDS011;41958;52.416;13.428;2022-08-19T12:48:35;10.02;;;9.10;;
56083;SDS011;41958;52.416;13.428;2022-08-19T12:51:01;10.85;;;9.75;;
56083;SDS011;41958;52.416;13.428;2022-08-19T12:53:31;10.95;;;8.07;;
56083;SDS011;41958;52.416;13.428;2022-08-19T12:55:59;9.77;;;8.87;;
56083;SDS011;41958;52.416;13.428;2022-08-19T12:58:25;9.60;;;8.63;;
56083;SDS011;41958;52.416;13.428;2022-08-19T13:00:51;9.73;;;8.73;;
56083;SDS011;41958;52.416;13.428;2022-08-19T13:03:16;8.95;;;8.07;;
56083;SDS011;41958;52.416;13.428;2022-08-19T13:05:41;9.37;;;8.20;;
56083;SDS011;41958;52.416;13.428;2022-08-19T13:08:07;9.55;;;8.65;;
56083;SDS011;41958;52.416;13.428;2022-08-19T13:10:33;8.93;;;8.10;;
56083;SDS011;41958;52.416;13.428;2022-08-19T13:13:05;9.23;;;8.32;;
56083;SDS011;41958;52.416;13.428;2022-08-19T13:15:33;9.38;;;8.38;;
56083;SDS011;41958;52.416;13.428;2022-08-19T13:18:04;9.93;;;8.93;;
56083;SDS011;41958;52.416;13.428;2022-08-19T13:20:30;10.02;;;9.02;;
56083;SDS011;41958;52.416;13.428;2022-08-19T13:22:55;9.93;;;8.97;;
56083;SDS011;41958;52.416;13.428;2022-08-19T13:25:22;10.73;;;9.48;;
56083;SDS011;41958;52.416;13.428;2022-08-19T13:27:48;10.15;;;9.15;;
56083;SDS011;41958;52.416;13.428;2022-08-19T13:30:16;9.23;;;8.32;;
56083;SDS011;41958;52.416;13.428;2022-08-19T13:33:00;9.77;;;8.98;;
56083;SDS011;41958;52.416;13.428;2022-08-19T13:35:42;9.73;;;8.82;;
56083;SDS011;41958;52.416;13.428;2022-08-19T13:38:10;9.98;;;8.98;;
56083;SDS011;41958;52.416;13.428;2022-08-19T13:40:36;11.60;;;8.70;;
56083;SDS011;41958;52.416;13.428;2022-08-19T13:43:03;10.98;;;9.13;;
56083;SDS011;41958;52.416;13.428;2022-08-19T13:45:29;10.52;;;9.52;;
56083;SDS011;41958;52.416;13.428;2022-08-19T13:48:00;11.82;;;10.48;;
56083;SDS011;41958;52.416;13.428;2022-08-19T13:50:31;10.85;;;9.88;;
56083;SDS011;41958;52.416;13.428;2022-08-19T13:52:58;12.88;;;10.82;;
56083;SDS011;41958;52.416;13.428;2022-08-19T13:55:24;11.98;;;10.35;;
56083;SDS011;41958;52.416;13.428;2022-08-19T13:57:57;14.15;;;10.30;;
56083;SDS011;41958;52.416;13.428;2022-08-19T14:00:25;13.00;;;11.40;;
56083;SDS011;41958;52.416;13.428;2022-08-19T14:02:53;10.98;;;9.98;;
56083;SDS011;41958;52.416;13.428;2022-08-19T14:05:20;11.15;;;10.20;;
56083;SDS011;41958;52.416;13.428;2022-08-19T14:07:46;11.30;;;10.13;;
56083;SDS011;41958;52.416;13.428;2022-08-19T14:10:13;14.98;;;11.20;;
56083;SDS011;41958;52.416;13.428;2022-08-19T14:12:39;11.32;;;10.13;;
56083;SDS011;41958;52.416;13.428;2022-08-19T14:15:06;11.05;;;9.95;;
56083;SDS011;41958;52.416;13.428;2022-08-19T14:17:33;12.35;;;10.68;;